Time;durP1;ratioP1;P1;durP2;ratioP2;P2;SDS_P1;SDS_P2;PMS_P1;PMS_P2;Temp;Humidity;BMP_temperature;BMP_pressure;BME280_temperature;BME280_humidity;BME280_pressure;Samples;Min_cycle;Max_cycle;Signal;HPM_P1;HPM_P2
2022/01/29 00:01:57;;;;;;;5.27;1.53;;;8.60;99.90;;;;;;6269911;22;20178;-93
2022/01/29 00:04:29;;;;;;;4.57;1.83;;;8.50;99.90;;;;;;6268871;22;20199;-93
2022/01/29 00:07:01;;;;;;;5.23;1.50;;;8.40;99.90;;;;;;6271891;22;20205;-90
2022/01/29 00:12:12;;;;;;;5.20;1.70;;;8.20;99.90;;;;;;6274075;22;20412;-92
2022/01/29 00:14:43;;;;;;;2.40;1.47;;;8.10;99.90;;;;;;6275156;22;20163;-92
2022/01/29 00:17:14;;;;;;;3.40;1.40;;;8.10;99.90;;;;;;6274545;22;20171;-93
2022/01/29 00:19:45;;;;;;;3.80;1.47;;;8.00;99.90;;;;;;6274650;22;20164;-92
2022/01/29 00:22:17;;;;;;;3.47;1.60;;;7.90;99.90;;;;;;6269931;22;20187;-92
2022/01/29 00:24:48;;;;;;;3.83;1.67;;;7.80;99.90;;;;;;6271486;22;20567;-93
2022/01/29 00:27:24;;;;;;;1.23;1.10;;;7.70;99.90;;;;;;6272010;22;20176;-93
2022/01/29 00:29:58;;;;;;;1.40;1.20;;;7.70;99.90;;;;;;6270482;22;20170;-92
2022/01/29 00:35:11;;;;;;;2.30;1.00;;;7.60;99.90;;;;;;6254590;22;20222;-93
2022/01/29 00:37:44;;;;;;;3.87;1.20;;;7.50;99.90;;;;;;6260729;22;20210;-93
2022/01/29 00:40:16;;;;;;;1.43;1.10;;;7.40;99.90;;;;;;6256692;22;20606;-92
2022/01/29 00:42:48;;;;;;;2.00;1.20;;;7.20;99.90;;;;;;6257577;22;20160;-93
2022/01/29 00:45:20;;;;;;;2.47;1.10;;;7.10;99.90;;;;;;6255364;22;20210;-93
2022/01/29 00:47:51;;;;;;;3.23;1.40;;;7.00;99.90;;;;;;6254824;22;20215;-93
2022/01/29 00:50:23;;;;;;;5.93;1.30;;;6.90;99.90;;;;;;6254989;22;20176;-93
2022/01/29 00:52:54;;;;;;;1.40;0.93;;;6.80;99.90;;;;;;6256107;23;20165;-93
2022/01/29 00:55:25;;;;;;;1.63;1.00;;;6.70;99.90;;;;;;6253965;23;20235;-93
2022/01/29 00:57:57;;;;;;;2.20;1.13;;;6.60;99.90;;;;;;6253868;22;20196;-93
2022/01/29 01:00:28;;;;;;;5.77;1.37;;;6.40;99.90;;;;;;6254445;23;20172;-94
2022/01/29 01:03:00;;;;;;;2.30;1.33;;;6.30;99.90;;;;;;6257499;22;20168;-93
2022/01/29 01:05:44;;;;;;;1.30;1.00;;;6.10;99.90;;;;;;6202141;23;20237;-93
2022/01/29 01:08:16;;;;;;;4.17;1.23;;;6.00;99.90;;;;;;6256189;23;20182;-93
2022/01/29 01:10:48;;;;;;;1.63;1.07;;;6.00;99.90;;;;;;6256173;22;20227;-93
2022/01/29 01:13:21;;;;;;;1.90;1.00;;;5.90;99.90;;;;;;6261302;22;20168;-94
2022/01/29 01:15:52;;;;;;;1.77;1.00;;;5.80;99.90;;;;;;6270841;22;20172;-93
2022/01/29 01:18:24;;;;;;;2.63;1.10;;;5.70;99.90;;;;;;6271055;22;20183;-93
2022/01/29 01:20:56;;;;;;;2.47;1.40;;;5.60;99.90;;;;;;6270333;22;20174;-93
2022/01/29 01:23:27;;;;;;;2.90;1.00;;;5.50;99.90;;;;;;6266122;22;20172;-93
2022/01/29 01:26:01;;;;;;;3.57;1.63;;;5.40;99.90;;;;;;6261941;22;20171;-93
2022/01/29 01:28:37;;;;;;;1.53;1.10;;;5.40;99.90;;;;;;6266935;22;20168;-94
2022/01/29 01:31:10;;;;;;;7.33;1.10;;;5.40;99.90;;;;;;6268187;23;20180;-93
2022/01/29 01:33:42;;;;;;;5.37;1.07;;;5.30;99.90;;;;;;6269911;22;20168;-93
2022/01/29 01:36:17;;;;;;;2.40;1.10;;;5.20;99.90;;;;;;6266453;23;20171;-93
2022/01/29 01:38:52;;;;;;;3.33;1.50;;;5.10;99.90;;;;;;6266376;23;20219;-93
2022/01/29 01:41:26;;;;;;;4.77;1.60;;;5.00;99.90;;;;;;6268047;22;20163;-93
2022/01/29 01:44:04;;;;;;;2.20;1.70;;;5.00;99.90;;;;;;6265703;22;20209;-93
2022/01/29 01:46:36;;;;;;;3.13;1.87;;;4.90;99.90;;;;;;6265417;22;20262;-93
2022/01/29 01:49:07;;;;;;;3.83;2.03;;;4.80;99.90;;;;;;6285715;22;20226;-92
2022/01/29 01:51:39;;;;;;;3.13;1.83;;;4.80;99.90;;;;;;6296633;22;20227;-93
2022/01/29 01:56:46;;;;;;;2.37;1.50;;;4.70;99.90;;;;;;6268757;22;20260;-92
2022/01/29 01:59:20;;;;;;;1.70;1.43;;;4.60;99.90;;;;;;6267890;23;20175;-92
2022/01/29 02:01:51;;;;;;;1.57;1.13;;;4.50;99.90;;;;;;6267176;23;20254;-94
2022/01/29 02:04:23;;;;;;;2.07;1.27;;;4.40;99.90;;;;;;6266900;22;20202;-92
2022/01/29 02:06:55;;;;;;;4.70;1.47;;;4.40;99.90;;;;;;6272082;22;20171;-93
2022/01/29 02:14:46;;;;;;;2.40;2.20;;;4.20;99.90;;;;;;6272046;22;20226;-92
2022/01/29 02:17:17;;;;;;;5.70;2.47;;;4.10;99.90;;;;;;6269479;23;20237;-92
2022/01/29 02:19:49;;;;;;;2.90;2.40;;;4.10;99.90;;;;;;6268365;23;20183;-92
2022/01/29 02:22:22;;;;;;;4.07;1.97;;;4.00;99.90;;;;;;6269578;22;20175;-89
2022/01/29 02:24:53;;;;;;;2.73;2.30;;;3.90;99.90;;;;;;6269166;23;20211;-93
2022/01/29 02:27:37;;;;;;;2.83;1.70;;;3.90;99.90;;;;;;6266951;23;20171;-92
2022/01/29 02:30:10;;;;;;;2.97;1.40;;;3.80;99.90;;;;;;6274090;22;20221;-92
2022/01/29 02:32:44;;;;;;;3.00;1.80;;;3.70;99.90;;;;;;6274031;22;20183;-93
2022/01/29 02:35:17;;;;;;;2.23;1.53;;;3.70;99.90;;;;;;6272164;22;20218;-92
2022/01/29 02:37:52;;;;;;;2.83;1.63;;;3.60;99.90;;;;;;6272682;22;20247;-92
2022/01/29 02:40:24;;;;;;;3.83;1.30;;;3.50;99.90;;;;;;6272403;22;20155;-91
2022/01/29 02:42:56;;;;;;;4.37;1.33;;;3.50;99.90;;;;;;6270306;23;20187;-92
2022/01/29 02:45:28;;;;;;;3.63;1.50;;;3.50;99.90;;;;;;6269892;22;20207;-91
2022/01/29 02:47:59;;;;;;;2.77;1.70;;;3.40;99.90;;;;;;6268123;22;20180;-92
2022/01/29 02:50:32;;;;;;;2.10;1.40;;;3.40;99.90;;;;;;6268013;22;20168;-92
2022/01/29 02:53:09;;;;;;;2.43;1.63;;;3.20;99.90;;;;;;6267952;22;20179;-92
2022/01/29 02:55:42;;;;;;;3.90;1.90;;;3.20;99.90;;;;;;6266858;23;20175;-92
2022/01/29 02:58:13;;;;;;;5.37;2.00;;;3.10;99.90;;;;;;6264927;23;20598;-93
2022/01/29 03:00:45;;;;;;;3.73;2.00;;;3.10;99.90;;;;;;6267706;22;20175;-93
2022/01/29 03:03:17;;;;;;;3.50;2.40;;;3.10;99.90;;;;;;6267063;22;20175;-93
2022/01/29 03:05:48;;;;;;;4.33;2.23;;;3.00;99.90;;;;;;6265466;23;20182;-93
2022/01/29 03:08:22;;;;;;;5.47;2.47;;;3.00;99.90;;;;;;6267312;22;20231;-93
2022/01/29 03:10:53;;;;;;;5.87;2.80;;;2.90;99.90;;;;;;6266136;23;20171;-93
2022/01/29 03:13:25;;;;;;;4.80;2.20;;;2.90;99.90;;;;;;6268200;23;20168;-93
2022/01/29 03:15:57;;;;;;;5.77;2.40;;;2.90;99.90;;;;;;6267715;22;20175;-92
2022/01/29 03:18:28;;;;;;;6.40;2.50;;;2.80;99.90;;;;;;6266977;22;20159;-92
2022/01/29 03:20:59;;;;;;;6.33;2.73;;;2.80;99.90;;;;;;6267245;22;20553;-93
2022/01/29 03:23:32;;;;;;;9.87;3.17;;;2.70;99.90;;;;;;6266388;22;20180;-92
2022/01/29 03:26:06;;;;;;;8.07;5.03;;;2.70;99.90;;;;;;6260398;22;20215;-92
2022/01/29 03:28:38;;;;;;;8.27;6.07;;;2.60;99.90;;;;;;6255237;22;20176;-92
2022/01/29 03:31:10;;;;;;;10.33;7.13;;;2.60;99.90;;;;;;6262698;23;20191;-93
2022/01/29 03:33:41;;;;;;;7.73;5.47;;;2.60;99.90;;;;;;6259825;22;20168;-93
2022/01/29 03:36:13;;;;;;;8.97;4.67;;;2.60;99.90;;;;;;6291086;22;20177;-92
2022/01/29 03:38:46;;;;;;;6.73;3.50;;;2.60;99.90;;;;;;6291331;22;20183;-93
2022/01/29 03:41:17;;;;;;;4.07;3.47;;;2.60;99.90;;;;;;6297548;22;20210;-92
2022/01/29 03:43:51;;;;;;;6.73;3.27;;;2.60;99.90;;;;;;6296555;22;20163;-92
2022/01/29 03:46:23;;;;;;;5.13;3.17;;;2.50;99.90;;;;;;6270392;22;20206;-93
2022/01/29 03:48:55;;;;;;;3.57;2.97;;;2.40;99.90;;;;;;6297485;22;20186;-93
2022/01/29 03:54:04;;;;;;;3.97;2.67;;;2.40;99.90;;;;;;6266654;22;20217;-94
2022/01/29 03:56:36;;;;;;;2.63;2.17;;;2.40;99.90;;;;;;6266135;22;20242;-94
2022/01/29 03:59:08;;;;;;;2.97;1.80;;;2.40;99.90;;;;;;6267007;23;20207;-94
2022/01/29 04:04:16;;;;;;;1.77;1.67;;;2.40;99.90;;;;;;6267543;22;20257;-93
2022/01/29 04:06:49;;;;;;;1.73;1.60;;;2.40;99.90;;;;;;6268484;22;20195;-92
2022/01/29 04:09:22;;;;;;;1.40;1.30;;;2.40;99.90;;;;;;6267986;23;20179;-94
2022/01/29 04:11:54;;;;;;;2.77;1.93;;;2.40;99.90;;;;;;6266528;23;20176;-93
2022/01/29 04:14:35;;;;;;;1.70;1.47;;;2.40;99.90;;;;;;6267144;22;20258;-94
2022/01/29 04:17:07;;;;;;;2.63;1.40;;;2.40;99.90;;;;;;6267701;22;20189;-93
2022/01/29 04:19:38;;;;;;;1.80;1.30;;;2.30;99.90;;;;;;6271403;22;20176;-92
2022/01/29 04:22:10;;;;;;;1.90;1.30;;;2.30;99.90;;;;;;6271693;22;20171;-94
2022/01/29 04:24:45;;;;;;;1.93;1.20;;;2.30;99.90;;;;;;6269902;23;20175;-93
2022/01/29 04:27:19;;;;;;;4.27;1.50;;;2.30;99.90;;;;;;6270454;22;20182;-93
2022/01/29 04:29:58;;;;;;;1.83;1.50;;;2.30;99.90;;;;;;6273334;22;20198;-93
2022/01/29 04:32:45;;;;;;;2.40;1.53;;;2.20;99.90;;;;;;6273086;22;20195;-94
2022/01/29 04:35:17;;;;;;;1.47;1.27;;;2.20;99.90;;;;;;6272002;22;20198;-93
2022/01/29 04:37:50;;;;;;;2.90;1.30;;;2.20;99.90;;;;;;6271834;22;20199;-92
2022/01/29 04:40:23;;;;;;;2.33;1.30;;;2.20;99.90;;;;;;6271320;22;20176;-93
2022/01/29 04:42:55;;;;;;;1.47;1.17;;;2.10;99.90;;;;;;6269200;22;20231;-93
2022/01/29 04:45:30;;;;;;;2.33;1.50;;;2.10;99.90;;;;;;6269271;22;20191;-94
2022/01/29 04:48:04;;;;;;;1.77;1.40;;;2.00;99.90;;;;;;6270239;22;20191;-93
2022/01/29 04:50:35;;;;;;;3.27;1.30;;;2.00;99.90;;;;;;6272953;22;20156;-93
2022/01/29 04:53:18;;;;;;;3.07;1.60;;;2.00;99.90;;;;;;6273013;22;20155;-91
2022/01/29 04:55:56;;;;;;;4.70;1.70;;;1.90;99.90;;;;;;6269876;22;20167;-93
2022/01/29 04:58:28;;;;;;;3.13;1.53;;;1.90;99.90;;;;;;6269406;22;20175;-94
2022/01/29 05:00:59;;;;;;;4.00;2.43;;;1.80;99.90;;;;;;6270502;22;20179;-93
2022/01/29 05:03:32;;;;;;;6.43;2.70;;;1.70;99.90;;;;;;6284663;22;20175;-94
2022/01/29 05:06:09;;;;;;;3.87;2.50;;;1.70;99.90;;;;;;6302652;22;20218;-93
2022/01/29 05:08:41;;;;;;;2.93;2.23;;;1.60;99.90;;;;;;6301657;22;20182;-94
2022/01/29 05:11:17;;;;;;;2.67;1.73;;;1.60;99.90;;;;;;6299259;22;20163;-94
2022/01/29 05:13:48;;;;;;;3.13;1.63;;;1.60;99.90;;;;;;6300352;22;20221;-94
2022/01/29 05:27:28;;;;;;;2.73;1.80;;;1.50;99.90;;;;;;6291372;22;20217;-94
2022/01/29 05:30:00;;;;;;;1.60;1.40;;;1.40;99.90;;;;;;6298382;22;20167;-92
2022/01/29 05:32:31;;;;;;;3.13;1.43;;;1.40;99.90;;;;;;6298604;22;20179;-93
2022/01/29 05:35:08;;;;;;;1.97;1.77;;;1.40;99.90;;;;;;6300424;22;20229;-94
2022/01/29 05:37:43;;;;;;;2.13;1.80;;;1.30;99.90;;;;;;6300033;22;20316;-92
2022/01/29 05:40:15;;;;;;;3.57;1.63;;;1.30;99.90;;;;;;6297906;22;20175;-92
2022/01/29 05:42:48;;;;;;;1.73;1.53;;;1.20;99.90;;;;;;6297250;22;20175;-93
2022/01/29 05:45:19;;;;;;;2.73;1.70;;;1.20;99.90;;;;;;6294396;22;20175;-93
2022/01/29 05:47:51;;;;;;;3.33;1.90;;;1.10;99.90;;;;;;6296445;22;20201;-93
2022/01/29 05:50:23;;;;;;;2.87;1.80;;;1.10;99.90;;;;;;6297781;22;20168;-94
2022/01/29 05:52:54;;;;;;;2.90;1.87;;;1.20;99.90;;;;;;6287369;22;20194;-93
2022/01/29 05:55:25;;;;;;;3.03;2.20;;;1.10;99.90;;;;;;6286929;22;20175;-94
2022/01/29 05:57:58;;;;;;;2.90;1.70;;;1.20;99.90;;;;;;6288103;22;20175;-94
2022/01/29 06:00:30;;;;;;;2.73;1.57;;;1.10;99.90;;;;;;6287788;22;20167;-94
2022/01/29 06:03:02;;;;;;;1.90;1.57;;;1.10;99.90;;;;;;6289797;22;20183;-93
2022/01/29 06:05:34;;;;;;;2.67;2.00;;;1.00;99.90;;;;;;6289852;22;20182;-93
2022/01/29 06:08:06;;;;;;;2.40;1.63;;;1.00;99.90;;;;;;6285797;22;20197;-93
2022/01/29 06:10:37;;;;;;;1.97;1.67;;;1.00;99.90;;;;;;6264830;22;20228;-93
2022/01/29 06:13:12;;;;;;;1.70;1.60;;;0.90;99.90;;;;;;6287865;22;20175;-94
2022/01/29 06:15:45;;;;;;;2.23;1.83;;;0.90;99.90;;;;;;6289192;22;20171;-93
2022/01/29 06:18:19;;;;;;;4.80;1.80;;;0.90;99.90;;;;;;6271022;22;20182;-93
2022/01/29 06:20:52;;;;;;;2.30;1.70;;;0.90;99.90;;;;;;6298627;22;20163;-90
2022/01/29 06:23:29;;;;;;;2.40;1.87;;;0.80;99.90;;;;;;6298807;22;20182;-94
2022/01/29 06:26:03;;;;;;;2.13;1.90;;;0.80;99.90;;;;;;6298973;22;20178;-93
2022/01/29 06:28:36;;;;;;;2.83;1.50;;;0.70;99.90;;;;;;6293024;22;20194;-93
2022/01/29 06:31:09;;;;;;;2.17;1.77;;;0.70;99.90;;;;;;6290367;22;20167;-93
2022/01/29 06:33:41;;;;;;;4.40;1.43;;;0.70;99.90;;;;;;6282648;22;20277;-94
2022/01/29 06:36:12;;;;;;;2.10;1.50;;;0.70;99.90;;;;;;6259675;23;20175;-94
2022/01/29 06:38:43;;;;;;;4.40;2.10;;;0.80;99.90;;;;;;6256206;23;20171;-94
2022/01/29 06:41:14;;;;;;;2.77;2.00;;;0.80;99.90;;;;;;6255718;23;20168;-94
2022/01/29 06:43:48;;;;;;;3.10;2.10;;;0.80;99.90;;;;;;6256096;23;20179;-93
2022/01/29 06:46:21;;;;;;;4.73;2.40;;;0.80;99.90;;;;;;6232390;23;20661;-94
2022/01/29 06:48:52;;;;;;;2.80;2.17;;;0.80;99.90;;;;;;6256089;23;20179;-94
2022/01/29 06:51:23;;;;;;;3.23;2.20;;;0.80;99.90;;;;;;6255461;23;20209;-94
2022/01/29 06:53:55;;;;;;;3.20;1.70;;;0.80;99.90;;;;;;6253880;23;20176;-92
2022/01/29 06:56:28;;;;;;;3.63;2.00;;;0.80;99.90;;;;;;6257165;23;20202;-96
2022/01/29 06:59:04;;;;;;;2.67;1.70;;;0.80;99.90;;;;;;6229827;23;20988;-93
2022/01/29 07:01:40;;;;;;;2.30;1.53;;;0.70;99.90;;;;;;6258481;23;20626;-94
2022/01/29 07:04:13;;;;;;;3.30;1.93;;;0.70;99.90;;;;;;6255048;23;20172;-94
2022/01/29 07:06:44;;;;;;;2.07;1.60;;;0.60;99.90;;;;;;6257218;23;20191;-94
2022/01/29 07:09:15;;;;;;;1.57;1.40;;;0.60;99.90;;;;;;6230812;23;20192;-94
2022/01/29 07:11:47;;;;;;;3.63;1.30;;;0.60;99.90;;;;;;6259089;23;20250;-95
2022/01/29 07:14:19;;;;;;;1.80;1.47;;;0.60;99.90;;;;;;6258790;23;20180;-94
2022/01/29 07:16:50;;;;;;;2.57;1.60;;;0.60;99.90;;;;;;6259048;23;20201;-95
2022/01/29 07:19:23;;;;;;;2.13;1.47;;;0.60;99.90;;;;;;6269155;22;20168;-95
2022/01/29 07:21:54;;;;;;;2.97;1.70;;;0.60;99.90;;;;;;6273522;22;20172;-94
2022/01/29 07:24:25;;;;;;;6.00;2.10;;;0.50;99.90;;;;;;6273031;22;20172;-91
2022/01/29 07:26:56;;;;;;;2.10;1.70;;;0.50;99.90;;;;;;6271975;22;20199;-94
2022/01/29 07:29:30;;;;;;;2.73;1.87;;;0.50;99.90;;;;;;6247312;23;20207;-93
2022/01/29 07:32:02;;;;;;;2.53;1.60;;;0.50;99.90;;;;;;6264210;23;20171;-94
2022/01/29 07:34:34;;;;;;;2.87;1.70;;;0.40;99.90;;;;;;6288803;22;20193;-94
2022/01/29 07:37:06;;;;;;;1.60;1.40;;;0.40;99.90;;;;;;6300408;22;20224;-94
2022/01/29 07:39:37;;;;;;;3.77;2.27;;;0.40;99.90;;;;;;6296468;22;20182;-93
2022/01/29 07:42:09;;;;;;;2.50;2.00;;;0.30;99.90;;;;;;6302234;22;20185;-94
2022/01/29 07:44:42;;;;;;;2.63;2.17;;;0.30;99.90;;;;;;6300956;22;20163;-95
2022/01/29 07:47:13;;;;;;;4.83;2.17;;;0.30;99.90;;;;;;6288541;22;20229;-94
2022/01/29 07:49:44;;;;;;;2.80;2.10;;;0.20;99.90;;;;;;6299852;22;20201;-95
2022/01/29 07:52:25;;;;;;;4.87;2.70;;;0.20;99.90;;;;;;6271869;22;20182;-95
2022/01/29 07:55:03;;;;;;;3.83;2.80;;;0.20;99.90;;;;;;6300729;22;20209;-94
2022/01/29 07:57:35;;;;;;;5.83;3.07;;;0.20;99.90;;;;;;6288928;22;20190;-95
2022/01/29 08:00:10;;;;;;;3.60;2.83;;;0.20;99.90;;;;;;6289074;22;20177;-94
2022/01/29 08:02:42;;;;;;;3.37;2.70;;;0.20;99.90;;;;;;6290113;22;20184;-94
2022/01/29 08:05:13;;;;;;;3.60;3.07;;;0.20;99.90;;;;;;6302004;22;20159;-93
2022/01/29 08:07:45;;;;;;;3.83;2.83;;;0.10;99.90;;;;;;6302354;22;20207;-94
2022/01/29 08:10:18;;;;;;;5.00;2.13;;;0.10;99.90;;;;;;6303672;22;20163;-90
2022/01/29 08:12:50;;;;;;;2.20;1.70;;;0.00;99.90;;;;;;6302942;22;20167;-92
2022/01/29 08:15:23;;;;;;;2.43;1.53;;;0.10;99.90;;;;;;6303351;22;20154;-94
2022/01/29 08:17:54;;;;;;;2.00;1.50;;;0.10;99.90;;;;;;6302074;22;20173;-92
2022/01/29 08:20:26;;;;;;;2.17;1.33;;;0.10;99.90;;;;;;6302965;22;20163;-94
2022/01/29 08:25:33;;;;;;;2.10;1.60;;;0.00;99.90;;;;;;6297811;22;20207;-94
2022/01/29 08:28:04;;;;;;;4.50;2.17;;;0.00;99.90;;;;;;6292802;22;20252;-93
2022/01/29 08:30:38;;;;;;;3.17;1.80;;;0.00;99.90;;;;;;6298613;22;20185;-95
2022/01/29 08:33:11;;;;;;;5.17;2.50;;;-0.10;99.90;;;;;;6296840;22;20505;-93
2022/01/29 08:35:43;;;;;;;3.30;2.03;;;-0.10;99.90;;;;;;6290213;22;20198;-94
2022/01/29 08:38:13;;;;;;;3.43;2.10;;;0.00;99.90;;;;;;6295596;22;20493;-94
2022/01/29 08:40:45;;;;;;;4.47;2.30;;;0.00;99.90;;;;;;6297002;22;20167;-95
2022/01/29 08:43:16;;;;;;;3.13;1.73;;;0.00;99.90;;;;;;6291651;22;20202;-95
2022/01/29 08:45:51;;;;;;;3.53;2.13;;;0.00;99.90;;;;;;6291455;22;20182;-94
2022/01/29 08:48:23;;;;;;;4.40;2.53;;;0.10;99.90;;;;;;6298212;22;20194;-93
2022/01/29 08:50:55;;;;;;;4.47;2.50;;;0.10;99.90;;;;;;6298073;22;20158;-94
2022/01/29 08:53:27;;;;;;;4.73;2.40;;;0.20;99.90;;;;;;6295103;22;20222;-95
2022/01/29 08:56:00;;;;;;;2.97;1.80;;;0.20;99.90;;;;;;6296955;22;20171;-93
2022/01/29 08:58:32;;;;;;;3.30;1.83;;;0.20;99.90;;;;;;6295551;22;20171;-94
2022/01/29 09:01:08;;;;;;;1.77;1.30;;;0.20;99.90;;;;;;6296914;22;20208;-94
2022/01/29 09:03:39;;;;;;;3.60;1.57;;;0.20;99.90;;;;;;6294134;22;20175;-94
2022/01/29 09:06:12;;;;;;;2.07;1.13;;;0.30;99.90;;;;;;6298185;22;20166;-94
2022/01/29 09:08:49;;;;;;;2.10;1.30;;;0.30;99.90;;;;;;6293995;22;20216;-94
2022/01/29 09:11:21;;;;;;;1.23;1.00;;;0.30;99.90;;;;;;6289127;22;20178;-94
2022/01/29 09:13:54;;;;;;;0.97;0.90;;;0.20;99.90;;;;;;6290099;22;20184;-93
2022/01/29 09:16:27;;;;;;;2.83;1.07;;;0.20;99.90;;;;;;6292735;22;20165;-94
2022/01/29 09:18:57;;;;;;;1.77;1.33;;;0.20;99.90;;;;;;6288311;22;20171;-91
2022/01/29 09:21:29;;;;;;;1.40;1.30;;;0.10;99.90;;;;;;6286016;22;20174;-94
2022/01/29 09:24:00;;;;;;;5.00;2.00;;;0.10;99.90;;;;;;6287018;22;20263;-93
2022/01/29 09:26:32;;;;;;;3.27;2.03;;;0.10;99.90;;;;;;6288766;22;20180;-95
2022/01/29 09:29:03;;;;;;;3.90;2.80;;;0.10;99.90;;;;;;6289627;22;20210;-94
2022/01/29 09:31:37;;;;;;;6.33;4.23;;;0.10;99.90;;;;;;6288927;22;20174;-94
2022/01/29 09:34:08;;;;;;;4.93;3.30;;;0.10;99.90;;;;;;6294636;22;20181;-94
2022/01/29 09:36:40;;;;;;;3.53;2.80;;;0.10;99.90;;;;;;6303835;22;20175;-94
2022/01/29 09:39:11;;;;;;;4.47;2.63;;;0.10;99.90;;;;;;6304602;22;20167;-93
2022/01/29 09:41:47;;;;;;;4.07;2.27;;;0.10;99.90;;;;;;6304641;22;20186;-94
2022/01/29 09:44:18;;;;;;;2.70;2.17;;;0.10;99.90;;;;;;6305186;22;20151;-93
2022/01/29 09:46:55;;;;;;;2.27;1.80;;;0.20;99.90;;;;;;6302268;22;20186;-94
2022/01/29 09:49:27;;;;;;;2.37;1.80;;;0.20;99.90;;;;;;6301224;22;20198;-94
2022/01/29 09:51:58;;;;;;;2.87;1.77;;;0.20;99.90;;;;;;6292951;22;20188;-93
2022/01/29 09:54:30;;;;;;;2.47;2.00;;;0.20;99.90;;;;;;6289540;22;20179;-93
2022/01/29 09:57:02;;;;;;;2.57;1.73;;;0.20;99.90;;;;;;6283977;22;20212;-93
2022/01/29 09:59:33;;;;;;;2.07;1.60;;;0.30;99.90;;;;;;6284440;22;20628;-94
2022/01/29 10:02:17;;;;;;;2.17;1.60;;;0.40;99.90;;;;;;6283420;22;20223;-94
2022/01/29 10:04:50;;;;;;;2.30;1.60;;;0.50;99.90;;;;;;6283952;22;20254;-94
2022/01/29 10:07:24;;;;;;;4.63;1.90;;;0.50;99.90;;;;;;6280280;22;20511;-94
2022/01/29 10:09:56;;;;;;;1.87;1.30;;;0.40;99.90;;;;;;6282864;22;20197;-94
2022/01/29 10:12:29;;;;;;;2.63;1.57;;;0.40;99.90;;;;;;6282771;22;20486;-96
2022/01/29 10:15:01;;;;;;;3.43;2.00;;;0.30;99.90;;;;;;6282318;22;20637;-95
2022/01/29 10:17:59;;;;;;;1.87;1.40;;;0.20;99.90;;;;;;6282013;22;20167;-95
2022/01/29 10:20:31;;;;;;;1.13;1.03;;;0.20;99.90;;;;;;6283887;22;20182;-95
2022/01/29 10:23:03;;;;;;;1.83;1.37;;;0.10;99.90;;;;;;6283063;22;20174;-95
2022/01/29 10:25:36;;;;;;;1.73;1.20;;;0.10;99.90;;;;;;6283132;22;20461;-95
2022/01/29 10:28:11;;;;;;;2.43;1.37;;;0.10;99.90;;;;;;6282061;22;20178;-95
2022/01/29 10:31:00;;;;;;;1.80;1.20;;;0.10;99.90;;;;;;6283386;22;20177;-95
2022/01/29 10:33:34;;;;;;;1.83;1.17;;;0.00;99.90;;;;;;6282601;22;20193;-95
2022/01/29 10:36:07;;;;;;;1.63;1.30;;;-0.10;99.90;;;;;;6283750;22;20170;-94
2022/01/29 10:38:53;;;;;;;1.93;1.10;;;-0.10;99.90;;;;;;6281874;22;20229;-94
2022/01/29 10:41:28;;;;;;;1.60;1.20;;;-0.10;99.90;;;;;;6285982;22;20181;-93
2022/01/29 10:44:11;;;;;;;1.83;1.40;;;-0.10;99.90;;;;;;6291119;22;20189;-93
2022/01/29 10:46:44;;;;;;;1.43;1.00;;;-0.10;99.90;;;;;;6284808;22;20524;-94
2022/01/29 10:49:24;;;;;;;1.70;1.60;;;-0.10;99.90;;;;;;6284279;22;20217;-94
2022/01/29 10:52:05;;;;;;;1.63;1.10;;;-0.10;99.90;;;;;;6289102;22;20685;-95
2022/01/29 10:54:38;;;;;;;2.37;1.50;;;-0.20;99.90;;;;;;6283615;22;20178;-93
2022/01/29 10:57:10;;;;;;;1.90;1.27;;;-0.20;99.90;;;;;;6283240;22;20208;-94
2022/01/29 10:59:50;;;;;;;2.07;1.70;;;-0.20;99.90;;;;;;6283948;22;20260;-93
2022/01/29 11:02:24;;;;;;;1.97;1.40;;;-0.20;99.90;;;;;;6284766;22;20167;-93
2022/01/29 11:04:57;;;;;;;2.17;1.47;;;-0.10;99.90;;;;;;6286024;22;20178;-93
2022/01/29 11:07:29;;;;;;;2.30;1.30;;;-0.10;99.90;;;;;;6283539;22;20208;-95
2022/01/29 11:10:05;;;;;;;1.83;1.43;;;0.10;99.90;;;;;;6283839;22;20253;-93
2022/01/29 11:12:45;;;;;;;1.23;1.10;;;0.20;99.90;;;;;;6284217;22;20168;-94
2022/01/29 11:15:20;;;;;;;2.07;1.13;;;0.40;99.90;;;;;;6284298;22;20230;-92
2022/01/29 11:17:51;;;;;;;1.20;1.07;;;0.50;99.90;;;;;;6282989;22;20169;-95
2022/01/29 11:20:24;;;;;;;3.10;1.57;;;0.70;99.90;;;;;;6285754;22;20209;-93
2022/01/29 11:22:56;;;;;;;2.20;1.20;;;0.80;99.90;;;;;;6284524;22;20288;-93
2022/01/29 11:25:31;;;;;;;2.20;1.20;;;0.90;99.90;;;;;;6283666;22;20175;-95
2022/01/29 11:28:17;;;;;;;1.30;0.90;;;0.80;99.90;;;;;;6282368;22;20178;-96
2022/01/29 11:31:10;;;;;;;1.57;0.90;;;0.80;99.90;;;;;;6286254;22;20189;-95
2022/01/29 11:34:14;;;;;;;1.47;1.20;;;0.70;99.90;;;;;;6284138;22;20171;-95
2022/01/29 11:37:09;;;;;;;1.70;1.13;;;0.60;99.90;;;;;;6282585;22;20836;-95
2022/01/29 11:39:40;;;;;;;1.00;0.90;;;0.50;99.90;;;;;;6282013;22;20177;-94
2022/01/29 11:42:32;;;;;;;1.50;1.10;;;0.40;99.90;;;;;;6288206;22;20167;-94
2022/01/29 11:45:38;;;;;;;2.13;1.10;;;0.40;99.90;;;;;;6289191;22;20171;-94
2022/01/29 11:48:11;;;;;;;0.83;0.80;;;0.30;99.90;;;;;;6287824;22;20251;-95
2022/01/29 11:50:48;;;;;;;1.10;1.00;;;0.20;99.90;;;;;;6288944;22;20216;-95
2022/01/29 11:53:24;;;;;;;1.80;0.90;;;0.20;99.90;;;;;;6289414;22;20176;-95
2022/01/29 11:55:58;;;;;;;1.37;1.10;;;0.10;99.90;;;;;;6293654;22;20169;-94
2022/01/29 11:58:31;;;;;;;1.70;1.13;;;0.10;99.90;;;;;;6299630;22;20165;-95
2022/01/29 12:01:05;;;;;;;2.27;1.37;;;0.10;99.90;;;;;;6301786;22;20180;-93
2022/01/29 12:06:20;;;;;;;1.80;1.40;;;0.10;99.90;;;;;;6288433;22;20183;-95
2022/01/29 12:09:24;;;;;;;3.40;1.63;;;0.00;99.90;;;;;;6298892;22;20159;-95
2022/01/29 12:12:19;;;;;;;2.63;1.50;;;0.10;99.90;;;;;;6302697;22;20627;-93
2022/01/29 12:14:51;;;;;;;1.60;1.23;;;0.10;99.90;;;;;;6301251;22;20181;-95
2022/01/29 12:17:41;;;;;;;1.70;1.40;;;0.10;99.90;;;;;;6299683;22;20181;-96
2022/01/29 12:20:14;;;;;;;4.23;1.60;;;0.10;99.90;;;;;;6294310;22;20171;-95
2022/01/29 12:22:47;;;;;;;1.93;1.43;;;0.10;99.90;;;;;;6288755;22;20686;-93
2022/01/29 12:25:23;;;;;;;3.70;1.90;;;0.10;99.90;;;;;;6264886;22;20179;-92
2022/01/29 12:27:57;;;;;;;2.83;1.60;;;0.10;99.90;;;;;;6287550;22;20181;-94
2022/01/29 12:30:33;;;;;;;2.13;1.50;;;0.00;99.90;;;;;;6288757;22;20649;-94
2022/01/29 12:33:06;;;;;;;2.10;1.60;;;0.00;99.90;;;;;;6291866;22;20170;-93
2022/01/29 12:35:45;;;;;;;1.87;1.33;;;0.00;99.90;;;;;;6289865;22;20174;-94
2022/01/29 12:38:18;;;;;;;2.17;1.73;;;-0.10;99.90;;;;;;6289185;22;20170;-94
2022/01/29 12:41:00;;;;;;;5.27;1.63;;;-0.10;99.90;;;;;;6288492;22;20178;-93
2022/01/29 12:43:36;;;;;;;2.07;1.53;;;0.00;99.90;;;;;;6292006;22;20171;-94
2022/01/29 12:46:13;;;;;;;2.70;1.77;;;0.00;99.90;;;;;;6262569;22;20605;-93
2022/01/29 12:48:46;;;;;;;2.77;1.50;;;0.00;99.90;;;;;;6289352;22;20177;-94
2022/01/29 12:51:17;;;;;;;1.50;1.30;;;0.00;99.90;;;;;;6286051;22;20722;-94
2022/01/29 12:53:57;;;;;;;1.97;1.60;;;0.00;99.90;;;;;;6286766;22;20178;-95
2022/01/29 12:56:35;;;;;;;1.77;1.40;;;0.00;99.90;;;;;;6286922;22;20173;-93
2022/01/29 12:59:07;;;;;;;2.47;1.83;;;0.00;99.90;;;;;;6261115;22;20167;-94
2022/01/29 13:01:40;;;;;;;2.67;1.77;;;0.00;99.90;;;;;;6286394;22;20174;-94
2022/01/29 13:04:13;;;;;;;3.50;1.70;;;-0.10;99.90;;;;;;6289756;22;20194;-93
2022/01/29 13:06:44;;;;;;;3.80;1.60;;;-0.20;99.90;;;;;;6289752;22;20170;-94
2022/01/29 13:09:18;;;;;;;2.40;1.60;;;-0.20;99.90;;;;;;6287453;22;20178;-92
2022/01/29 13:11:58;;;;;;;2.03;1.50;;;-0.30;99.90;;;;;;6286763;22;20519;-94
2022/01/29 13:14:31;;;;;;;3.43;1.70;;;-0.30;99.90;;;;;;6290157;22;20177;-93
2022/01/29 13:17:04;;;;;;;3.17;1.60;;;-0.30;99.90;;;;;;6297243;22;20177;-94
2022/01/29 13:19:38;;;;;;;2.77;1.80;;;-0.30;99.90;;;;;;6303471;22;20165;-93
2022/01/29 13:22:12;;;;;;;2.30;1.60;;;-0.30;99.90;;;;;;6303919;22;20159;-94
2022/01/29 13:24:48;;;;;;;2.97;1.80;;;-0.30;99.90;;;;;;6301907;22;20238;-93
2022/01/29 13:27:29;;;;;;;2.83;1.77;;;-0.30;99.90;;;;;;6298847;22;20216;-93
2022/01/29 13:30:11;;;;;;;3.13;1.90;;;-0.30;99.90;;;;;;6298665;22;20253;-95
2022/01/29 13:32:42;;;;;;;2.27;1.63;;;-0.30;99.90;;;;;;6292443;22;20174;-93
2022/01/29 13:35:23;;;;;;;4.17;1.53;;;-0.30;99.90;;;;;;6286719;22;20175;-94
2022/01/29 13:37:56;;;;;;;1.13;1.03;;;-0.40;99.90;;;;;;6286183;22;20280;-93
2022/01/29 13:40:36;;;;;;;2.57;1.60;;;-0.40;99.90;;;;;;6285485;22;20198;-93
2022/01/29 13:43:12;;;;;;;2.20;1.60;;;-0.40;99.90;;;;;;6293461;22;20170;-93
2022/01/29 13:45:53;;;;;;;2.30;1.70;;;-0.30;99.90;;;;;;6300690;22;20177;-92
2022/01/29 13:48:27;;;;;;;2.10;1.53;;;-0.40;99.90;;;;;;6294427;22;20174;-93
2022/01/29 13:51:00;;;;;;;2.20;1.67;;;-0.40;99.90;;;;;;6286838;22;20208;-94
2022/01/29 13:53:42;;;;;;;1.63;1.30;;;-0.40;99.90;;;;;;6285676;22;20260;-93
2022/01/29 13:56:14;;;;;;;2.17;1.60;;;-0.40;99.90;;;;;;6286793;22;20170;-94
2022/01/29 13:58:50;;;;;;;2.10;1.37;;;-0.30;99.90;;;;;;6283506;22;20202;-95
2022/01/29 14:01:40;;;;;;;2.30;1.53;;;-0.30;99.90;;;;;;6289162;22;20175;-95
2022/01/29 14:04:13;;;;;;;1.80;1.50;;;-0.30;99.90;;;;;;6285407;22;20212;-95
2022/01/29 14:06:47;;;;;;;2.07;1.50;;;-0.30;99.90;;;;;;6285633;22;20186;-95